Homer Glen, Illinois
Current Conditions -  °F | °C
As of 12:55 AM on Saturday 01 Nov 2014 (Local Time) from KLOT Reporting Station
Overcast Overcast  
Wind Chill: 27°   Ceiling: 4100
Heat Index: 36°   Visibility: 10mi
Dew Point: 21°   Wind: 13mph
Humidity: 54%   Direction: 350°N
Pressure: 30.34"   Gusts: 25mph
Location:  41.6186°N, 87.9337°W
Report Text: KLOT 010555Z AUTO 35011G22KT 10SM BKN041 OVC047 02/M06 A3034 RMK AO2 T00211063 10030 20007 400760007
Loading
Personal Weather Stations






























Interactive Weather Map
Tropical Storm Tracking
New forecast layout! Learn more

10-Day Weather Forecast

Advertisements
Track Severe Weather on mobile